createdAt,value
2018-09-30T00:00:27.848Z,0.00
2018-09-30T00:01:27.891Z,0.00
2018-09-30T00:02:27.824Z,0.00
2018-09-30T00:03:27.818Z,0.00
2018-09-30T00:04:27.802Z,0.00
2018-09-30T00:05:27.797Z,0.00
2018-09-30T00:06:27.783Z,0.00
2018-09-30T00:07:27.776Z,0.00
2018-09-30T00:08:27.759Z,0.00
2018-09-30T00:09:27.750Z,0.00
2018-09-30T00:10:27.740Z,0.00
2018-09-30T00:11:27.728Z,0.00
2018-09-30T00:12:27.715Z,0.00
2018-09-30T00:13:27.704Z,0.00
2018-09-30T00:14:27.695Z,0.00
2018-09-30T00:15:27.683Z,0.00
2018-09-30T00:16:27.676Z,0.00
2018-09-30T00:17:27.662Z,0.00
2018-09-30T00:18:27.651Z,0.00
2018-09-30T00:19:27.649Z,0.00
2018-09-30T00:20:27.630Z,0.00
2018-09-30T00:21:27.621Z,0.00
2018-09-30T00:22:27.608Z,0.00
2018-09-30T00:23:27.598Z,0.00
2018-09-30T00:24:27.586Z,0.00
2018-09-30T00:25:27.574Z,0.00
2018-09-30T00:26:27.566Z,0.00
2018-09-30T00:27:27.555Z,0.00
2018-09-30T00:28:27.547Z,0.00
2018-09-30T00:29:27.532Z,0.00
2018-09-30T00:30:27.523Z,0.00
2018-09-30T00:31:27.513Z,0.00
2018-09-30T00:32:27.499Z,0.00
2018-09-30T00:33:27.489Z,0.00
2018-09-30T00:34:27.479Z,0.00
2018-09-30T00:35:27.473Z,0.00
2018-09-30T00:36:27.511Z,0.00
2018-09-30T00:37:27.447Z,0.00
2018-09-30T00:38:27.435Z,0.00
2018-09-30T00:39:27.424Z,0.00
2018-09-30T00:40:27.415Z,0.00
2018-09-30T00:41:27.404Z,0.00
2018-09-30T00:42:27.391Z,0.00
2018-09-30T00:43:27.382Z,0.00
2018-09-30T00:44:27.370Z,0.00
2018-09-30T00:45:27.361Z,0.00
2018-09-30T00:46:27.347Z,0.00
2018-09-30T00:47:27.339Z,0.00
2018-09-30T00:48:27.327Z,0.00
2018-09-30T00:49:27.316Z,0.00
2018-09-30T00:50:27.308Z,0.00
2018-09-30T00:51:27.294Z,0.00
2018-09-30T00:52:27.285Z,0.00
2018-09-30T00:53:27.275Z,0.00
2018-09-30T00:54:27.264Z,0.00
2018-09-30T00:55:27.251Z,0.00
2018-09-30T00:56:27.240Z,0.00
2018-09-30T00:57:27.230Z,0.00
2018-09-30T00:58:27.220Z,0.00
2018-09-30T00:59:27.211Z,0.00
2018-09-30T01:00:27.198Z,0.00
2018-09-30T01:01:27.186Z,0.00
2018-09-30T01:02:27.177Z,0.00
2018-09-30T01:03:27.164Z,0.00
2018-09-30T01:04:27.160Z,0.00
2018-09-30T01:05:27.143Z,0.00
2018-09-30T01:06:27.131Z,0.00
2018-09-30T01:07:27.123Z,0.00
2018-09-30T01:08:27.114Z,0.00
2018-09-30T01:09:27.102Z,0.00
2018-09-30T01:10:27.093Z,0.00
2018-09-30T01:11:27.090Z,0.00
2018-09-30T01:12:27.072Z,0.00
2018-09-30T01:13:27.061Z,0.00
2018-09-30T01:14:27.047Z,0.00
2018-09-30T01:15:27.034Z,0.00
2018-09-30T01:16:27.028Z,0.00
2018-09-30T01:17:27.014Z,0.00
2018-09-30T01:18:27.003Z,0.00
2018-09-30T01:19:26.994Z,0.00
2018-09-30T01:20:26.982Z,0.00
2018-09-30T01:21:26.972Z,0.00
2018-09-30T01:22:26.960Z,0.00
2018-09-30T01:23:26.948Z,0.00
2018-09-30T01:24:26.939Z,0.00
2018-09-30T01:25:26.928Z,0.00
2018-09-30T01:26:26.917Z,0.00
2018-09-30T01:27:26.908Z,0.00
2018-09-30T01:28:26.898Z,0.00
2018-09-30T01:29:26.886Z,0.00
2018-09-30T01:30:26.875Z,0.00
2018-09-30T01:31:26.965Z,0.00
2018-09-30T01:32:26.856Z,0.00
2018-09-30T01:33:26.844Z,0.00
2018-09-30T01:34:26.831Z,0.00
2018-09-30T01:35:26.875Z,0.00
2018-09-30T01:36:26.808Z,0.00
2018-09-30T01:37:26.799Z,0.00
2018-09-30T01:38:26.792Z,0.00
2018-09-30T01:39:26.779Z,0.00
2018-09-30T01:40:26.772Z,0.00
2018-09-30T01:41:26.757Z,0.00
2018-09-30T01:42:26.744Z,0.00
2018-09-30T01:43:26.735Z,0.00
2018-09-30T01:44:26.726Z,0.00
2018-09-30T01:45:26.711Z,0.00
2018-09-30T01:46:26.702Z,0.00
2018-09-30T01:47:26.692Z,0.00
2018-09-30T01:48:26.684Z,0.00
2018-09-30T01:49:26.669Z,0.00
2018-09-30T01:50:26.658Z,0.00
2018-09-30T01:51:26.650Z,0.00
2018-09-30T01:52:26.637Z,0.00
2018-09-30T01:53:26.628Z,0.00
2018-09-30T01:54:26.617Z,0.00
2018-09-30T01:55:26.605Z,0.00
2018-09-30T01:56:26.594Z,0.00
2018-09-30T01:57:26.585Z,0.00
2018-09-30T01:58:26.577Z,0.00
2018-09-30T01:59:26.562Z,0.00
2018-09-30T02:00:26.553Z,0.00
2018-09-30T02:01:26.543Z,0.00
2018-09-30T02:02:26.531Z,0.00
2018-09-30T02:03:26.519Z,0.00
2018-09-30T02:04:26.510Z,0.00
2018-09-30T02:05:26.497Z,0.00
2018-09-30T02:06:26.492Z,0.00
2018-09-30T02:07:26.478Z,0.00
2018-09-30T02:08:26.465Z,0.00
2018-09-30T02:09:26.454Z,0.00
2018-09-30T02:10:26.446Z,0.00
2018-09-30T02:11:26.434Z,0.00
2018-09-30T02:12:26.427Z,0.00
2018-09-30T02:13:26.413Z,0.00
2018-09-30T02:14:26.404Z,0.00
2018-09-30T02:15:26.391Z,0.00
2018-09-30T02:16:26.381Z,0.00
2018-09-30T02:17:26.370Z,0.00
2018-09-30T02:18:26.360Z,0.00
2018-09-30T02:19:26.348Z,0.00
2018-09-30T02:20:26.337Z,0.00
2018-09-30T02:21:26.330Z,0.00
2018-09-30T02:22:26.315Z,0.00
2018-09-30T02:23:26.304Z,0.00
2018-09-30T02:24:26.294Z,0.00
2018-09-30T02:25:26.281Z,0.00
2018-09-30T02:26:26.272Z,0.00
2018-09-30T02:27:26.261Z,0.00
2018-09-30T02:28:26.253Z,0.00
2018-09-30T02:29:26.241Z,0.00
2018-09-30T02:30:26.231Z,0.00
2018-09-30T02:31:26.255Z,0.00
2018-09-30T02:32:26.209Z,0.00
2018-09-30T02:33:26.197Z,0.00
2018-09-30T02:34:26.190Z,0.00
2018-09-30T02:35:26.177Z,0.00
2018-09-30T02:36:26.167Z,0.00
2018-09-30T02:37:26.158Z,0.00
2018-09-30T02:38:26.144Z,0.00
2018-09-30T02:39:26.131Z,0.00
2018-09-30T02:40:26.125Z,0.00
2018-09-30T02:41:26.111Z,0.00
2018-09-30T02:42:26.100Z,0.00
2018-09-30T02:43:26.092Z,0.00
2018-09-30T02:44:26.084Z,0.00
2018-09-30T02:45:26.076Z,0.00
2018-09-30T02:46:26.058Z,0.00
2018-09-30T02:47:26.046Z,0.00
2018-09-30T02:48:26.042Z,0.00
2018-09-30T02:49:26.025Z,0.00
2018-09-30T02:50:26.015Z,0.00
2018-09-30T02:51:26.005Z,0.00
2018-09-30T02:52:25.993Z,0.00
2018-09-30T02:53:25.984Z,0.00
2018-09-30T02:54:25.974Z,0.00
2018-09-30T02:55:25.960Z,0.00
2018-09-30T02:56:25.949Z,0.00
2018-09-30T02:57:25.940Z,0.00
2018-09-30T02:58:25.929Z,0.00
2018-09-30T02:59:25.918Z,0.00
2018-09-30T03:00:25.907Z,0.00
2018-09-30T03:01:25.895Z,0.00
2018-09-30T03:02:25.886Z,0.00
2018-09-30T03:03:25.874Z,0.00
2018-09-30T03:04:25.867Z,0.00
2018-09-30T03:05:25.852Z,0.00
2018-09-30T03:06:25.843Z,0.00
2018-09-30T03:07:25.831Z,0.00
2018-09-30T03:08:25.821Z,0.00
2018-09-30T03:09:25.808Z,0.00
2018-09-30T03:10:25.801Z,0.00
2018-09-30T03:11:25.787Z,0.00
2018-09-30T03:12:25.777Z,0.00
2018-09-30T03:13:25.766Z,0.00
2018-09-30T03:14:25.756Z,0.00
2018-09-30T03:15:25.753Z,0.00
2018-09-30T03:16:25.734Z,0.00
2018-09-30T03:17:25.723Z,0.00
2018-09-30T03:18:25.714Z,0.00
2018-09-30T03:19:25.706Z,0.00
2018-09-30T03:20:25.694Z,0.00
2018-09-30T03:21:25.685Z,0.00
2018-09-30T03:22:25.676Z,0.00
2018-09-30T03:23:25.660Z,0.00
2018-09-30T03:24:25.665Z,0.00
2018-09-30T03:25:25.638Z,0.00
2018-09-30T03:26:25.627Z,0.00
2018-09-30T03:27:25.616Z,0.00
2018-09-30T03:28:25.607Z,0.00
2018-09-30T03:29:25.599Z,0.00
2018-09-30T03:30:25.584Z,0.00
2018-09-30T03:31:25.573Z,0.00
2018-09-30T03:32:25.565Z,0.00
2018-09-30T03:33:25.553Z,0.00
2018-09-30T03:34:25.542Z,0.00
2018-09-30T03:35:25.531Z,0.00
2018-09-30T03:36:25.519Z,0.00
2018-09-30T03:37:25.512Z,0.00
2018-09-30T03:38:25.498Z,0.00
2018-09-30T03:39:25.510Z,0.00
2018-09-30T03:40:25.478Z,0.00
2018-09-30T03:41:25.465Z,0.00
2018-09-30T03:42:25.461Z,0.00
2018-09-30T03:43:25.447Z,0.00
2018-09-30T03:44:25.440Z,0.00
2018-09-30T03:45:25.422Z,0.00
2018-09-30T03:46:25.412Z,0.00
2018-09-30T03:47:25.400Z,0.00
2018-09-30T03:48:25.392Z,0.00
2018-09-30T03:49:25.383Z,0.00
2018-09-30T03:50:25.369Z,0.00
2018-09-30T03:51:25.358Z,0.00
2018-09-30T03:52:25.347Z,0.00
2018-09-30T03:53:25.338Z,0.00
2018-09-30T03:54:25.327Z,0.00
2018-09-30T03:55:25.313Z,0.00
2018-09-30T03:56:25.304Z,0.00
2018-09-30T03:57:25.295Z,0.00
2018-09-30T03:58:25.307Z,0.00
2018-09-30T03:59:25.275Z,0.00
2018-09-30T04:00:25.262Z,0.00
2018-09-30T04:01:25.251Z,0.00
2018-09-30T04:02:25.241Z,0.00
2018-09-30T04:03:25.228Z,0.00
2018-09-30T04:04:25.220Z,0.00
2018-09-30T04:05:25.208Z,0.00
2018-09-30T04:06:25.199Z,0.00
2018-09-30T04:07:25.185Z,0.00
2018-09-30T04:08:25.186Z,0.00
2018-09-30T04:09:25.178Z,0.00
2018-09-30T04:10:25.156Z,0.00
2018-09-30T04:11:25.144Z,0.00
2018-09-30T04:12:25.134Z,0.00
2018-09-30T04:13:25.121Z,0.00
2018-09-30T04:14:25.112Z,0.00
2018-09-30T04:15:25.103Z,0.00
2018-09-30T04:16:25.092Z,0.00
2018-09-30T04:17:25.177Z,0.00
2018-09-30T04:18:25.067Z,0.00
2018-09-30T04:19:25.061Z,0.00
2018-09-30T04:20:25.047Z,0.00
2018-09-30T04:21:25.037Z,0.00
2018-09-30T04:22:25.026Z,0.00
2018-09-30T04:23:25.015Z,0.00
2018-09-30T04:24:25.004Z,0.00
2018-09-30T04:25:24.992Z,0.00
2018-09-30T04:26:24.984Z,0.00
2018-09-30T04:27:24.972Z,0.00
2018-09-30T04:28:24.963Z,0.00
2018-09-30T04:29:24.952Z,0.00
2018-09-30T04:30:24.940Z,0.00
2018-09-30T04:31:24.929Z,0.00
2018-09-30T04:32:24.919Z,0.00
2018-09-30T04:33:25.024Z,0.00
2018-09-30T04:34:24.898Z,0.00
2018-09-30T04:35:24.886Z,0.00
2018-09-30T04:36:24.876Z,0.00
2018-09-30T04:37:24.865Z,0.00
2018-09-30T04:38:24.856Z,0.00
2018-09-30T04:39:24.849Z,0.00
2018-09-30T04:40:24.832Z,0.00
2018-09-30T04:41:24.824Z,0.00
2018-09-30T04:42:24.810Z,0.00
2018-09-30T04:43:24.799Z,0.00
2018-09-30T04:44:24.790Z,0.00
2018-09-30T04:45:24.777Z,0.00
2018-09-30T04:46:24.770Z,0.00
2018-09-30T04:47:24.759Z,0.00
2018-09-30T04:48:24.747Z,0.00
2018-09-30T04:49:24.737Z,0.00
2018-09-30T04:50:24.724Z,0.00
2018-09-30T04:51:24.716Z,0.00
2018-09-30T04:52:24.705Z,0.00
2018-09-30T04:53:24.694Z,4.00
2018-09-30T04:54:24.683Z,4.00
2018-09-30T04:55:24.673Z,0.00
2018-09-30T04:56:24.662Z,4.00
2018-09-30T04:57:24.653Z,0.00
2018-09-30T04:58:24.641Z,4.00
2018-09-30T04:59:24.629Z,4.00
2018-09-30T05:00:24.619Z,4.00
2018-09-30T05:01:24.607Z,4.00
2018-09-30T05:02:24.598Z,8.00
2018-09-30T05:03:24.586Z,8.00
2018-09-30T05:04:24.579Z,8.00
2018-09-30T05:05:24.565Z,12.00
2018-09-30T05:06:24.553Z,16.00
2018-09-30T05:07:24.546Z,20.00
2018-09-30T05:08:24.537Z,20.00
2018-09-30T05:09:24.528Z,24.00
2018-09-30T05:10:24.511Z,28.00
2018-09-30T05:11:24.502Z,36.00
2018-09-30T05:12:24.490Z,40.00
2018-09-30T05:13:24.481Z,52.00
2018-09-30T05:14:24.469Z,60.00
2018-09-30T05:15:24.458Z,64.00
2018-09-30T05:16:24.490Z,80.00
2018-09-30T05:17:24.436Z,88.00
2018-09-30T05:18:24.426Z,100.00
2018-09-30T05:19:24.423Z,116.00
2018-09-30T05:20:24.403Z,128.00
2018-09-30T05:21:24.396Z,148.00
2018-09-30T05:22:24.388Z,168.00
2018-09-30T05:23:24.373Z,188.00
2018-09-30T05:24:24.361Z,208.00
2018-09-30T05:25:24.349Z,232.00
2018-09-30T05:26:24.340Z,252.00
2018-09-30T05:27:24.331Z,276.00
2018-09-30T05:28:24.318Z,304.00
2018-09-30T05:29:24.307Z,328.00
2018-09-30T05:30:24.299Z,360.00
2018-09-30T05:31:24.286Z,388.00
2018-09-30T05:32:24.275Z,424.00
2018-09-30T05:33:24.267Z,456.00
2018-09-30T05:34:24.253Z,488.00
2018-09-30T05:35:24.244Z,532.00
2018-09-30T05:36:24.233Z,568.00
2018-09-30T05:37:24.229Z,604.00
2018-09-30T05:38:24.211Z,640.00
2018-09-30T05:39:24.201Z,680.00
2018-09-30T05:40:24.190Z,716.00
2018-09-30T05:41:24.182Z,756.00
2018-09-30T05:42:24.182Z,792.00
2018-09-30T05:43:24.158Z,832.00
2018-09-30T05:44:24.148Z,872.00
2018-09-30T05:45:24.137Z,912.00
2018-09-30T05:46:24.129Z,948.00
2018-09-30T05:47:24.118Z,988.00
2018-09-30T05:48:24.107Z,1028.00
2018-09-30T05:49:24.095Z,1068.00
2018-09-30T05:50:24.081Z,1104.00
2018-09-30T05:51:24.076Z,1144.00
2018-09-30T05:52:24.063Z,1184.00
2018-09-30T05:53:24.051Z,1220.00
2018-09-30T05:54:24.041Z,1256.00
2018-09-30T05:55:24.030Z,1296.00
2018-09-30T05:56:24.018Z,1332.00
2018-09-30T05:57:24.056Z,1392.00
2018-09-30T05:58:23.996Z,1500.00
2018-09-30T05:59:23.987Z,1608.00
2018-09-30T06:00:23.976Z,1684.00
2018-09-30T06:01:23.967Z,1724.00
2018-09-30T06:02:23.955Z,1764.00
2018-09-30T06:03:23.943Z,1812.00
2018-09-30T06:04:23.932Z,1852.00
2018-09-30T06:05:23.923Z,1896.00
2018-09-30T06:06:23.911Z,1936.00
2018-09-30T06:07:23.902Z,1976.00
2018-09-30T06:08:23.888Z,2028.00
2018-09-30T06:09:23.895Z,2064.00
2018-09-30T06:10:23.870Z,2104.00
2018-09-30T06:11:23.861Z,2140.00
2018-09-30T06:12:23.847Z,2184.00
2018-09-30T06:13:23.837Z,2216.00
2018-09-30T06:14:23.825Z,2260.00
2018-09-30T06:15:23.815Z,2296.00
2018-09-30T06:16:23.808Z,2328.00
2018-09-30T06:17:23.796Z,2360.00
2018-09-30T06:18:23.782Z,2384.00
2018-09-30T06:19:23.772Z,2396.00
2018-09-30T06:20:23.762Z,2412.00
2018-09-30T06:21:23.751Z,2432.00
2018-09-30T06:22:23.742Z,2448.00
2018-09-30T06:23:23.730Z,2468.00
2018-09-30T06:24:23.717Z,2488.00
2018-09-30T06:25:23.707Z,2504.00
2018-09-30T06:26:23.696Z,2524.00
2018-09-30T06:27:23.686Z,2544.00
2018-09-30T06:28:23.674Z,2552.00
2018-09-30T06:29:23.669Z,2568.00
2018-09-30T06:30:23.655Z,2584.00
2018-09-30T06:31:23.643Z,2600.00
2018-09-30T06:32:23.632Z,2612.00
2018-09-30T06:33:23.620Z,2628.00
2018-09-30T06:34:23.609Z,2644.00
2018-09-30T06:35:23.599Z,2656.00
2018-09-30T06:36:23.588Z,2668.00
2018-09-30T06:37:23.628Z,2684.00
2018-09-30T06:38:23.568Z,2704.00
2018-09-30T06:39:23.557Z,2720.00
2018-09-30T06:40:23.646Z,2740.00
2018-09-30T06:41:23.535Z,2764.00
2018-09-30T06:42:23.524Z,2780.00
2018-09-30T06:43:23.512Z,2804.00
2018-09-30T06:44:23.503Z,2824.00
2018-09-30T06:45:23.576Z,2836.00
2018-09-30T06:46:23.483Z,2856.00
2018-09-30T06:47:23.470Z,2876.00
2018-09-30T06:48:23.460Z,2896.00
2018-09-30T06:49:23.449Z,2924.00
2018-09-30T06:50:23.436Z,2932.00
2018-09-30T06:51:23.425Z,2952.00
2018-09-30T06:52:23.420Z,2968.00
2018-09-30T06:53:23.406Z,2992.00
2018-09-30T06:54:23.393Z,3008.00
2018-09-30T06:55:23.383Z,3032.00
2018-09-30T06:56:23.375Z,3048.00
2018-09-30T06:57:23.361Z,3064.00
2018-09-30T06:58:23.351Z,3080.00
2018-09-30T06:59:23.338Z,3104.00
2018-09-30T07:00:23.328Z,3124.00
2018-09-30T07:01:23.318Z,3176.00
2018-09-30T07:02:23.307Z,3192.00
2018-09-30T07:03:23.296Z,3220.00
2018-09-30T07:04:23.287Z,3248.00
2018-09-30T07:05:23.276Z,3268.00
2018-09-30T07:06:23.266Z,3284.00
2018-09-30T07:07:23.255Z,3300.00
2018-09-30T07:08:23.244Z,3324.00
2018-09-30T07:09:23.234Z,3336.00
2018-09-30T07:10:23.224Z,3348.00
2018-09-30T07:11:23.212Z,3356.00
2018-09-30T07:12:23.201Z,3368.00
2018-09-30T07:13:23.190Z,3380.00
2018-09-30T07:14:23.176Z,3404.00
2018-09-30T07:15:23.167Z,3440.00
2018-09-30T07:16:23.157Z,3468.00
2018-09-30T07:17:23.145Z,3484.00
2018-09-30T07:18:23.137Z,3508.00
2018-09-30T07:19:23.128Z,3528.00
2018-09-30T07:20:23.113Z,3560.00
2018-09-30T07:21:23.107Z,3584.00
2018-09-30T07:22:23.183Z,3604.00
2018-09-30T07:23:23.083Z,3612.00
2018-09-30T07:24:23.071Z,3580.00
2018-09-30T07:25:23.059Z,3596.00
2018-09-30T07:26:23.048Z,3612.00
2018-09-30T07:27:23.036Z,3600.00
2018-09-30T07:28:23.027Z,3616.00
2018-09-30T07:29:23.016Z,3648.00
2018-09-30T07:30:23.006Z,3680.00
2018-09-30T07:31:22.998Z,3696.00
2018-09-30T07:32:22.983Z,3712.00
2018-09-30T07:33:22.973Z,3728.00
2018-09-30T07:34:22.960Z,3756.00
2018-09-30T07:35:22.952Z,3800.00
2018-09-30T07:36:22.951Z,3828.00
2018-09-30T07:37:22.929Z,3852.00
2018-09-30T07:38:22.919Z,3868.00
2018-09-30T07:39:22.916Z,3888.00
2018-09-30T07:40:22.899Z,3912.00
2018-09-30T07:41:22.887Z,3932.00
2018-09-30T07:42:22.875Z,3952.00
2018-09-30T07:43:22.865Z,3972.00
2018-09-30T07:44:22.852Z,3996.00
2018-09-30T07:45:22.844Z,4024.00
2018-09-30T07:46:22.832Z,4048.00
2018-09-30T07:47:22.825Z,4072.00
2018-09-30T07:48:22.816Z,4084.00
2018-09-30T07:49:22.801Z,4124.00
2018-09-30T07:50:22.790Z,4148.00
2018-09-30T07:51:22.776Z,4172.00
2018-09-30T07:52:22.787Z,4200.00
2018-09-30T07:53:22.755Z,4220.00
2018-09-30T07:54:22.745Z,4236.00
2018-09-30T07:55:22.734Z,4248.00
2018-09-30T07:56:22.724Z,4268.00
2018-09-30T07:57:22.716Z,4292.00
2018-09-30T07:58:22.703Z,4320.00
2018-09-30T07:59:22.695Z,4348.00
2018-09-30T08:00:22.679Z,4368.00
2018-09-30T08:01:22.668Z,4372.00
2018-09-30T08:02:22.658Z,4372.00
2018-09-30T08:03:22.647Z,4376.00
2018-09-30T08:04:22.638Z,4380.00
2018-09-30T08:05:22.625Z,4380.00
2018-09-30T08:06:22.680Z,4384.00
2018-09-30T08:07:22.604Z,4372.00
2018-09-30T08:08:22.593Z,4412.00
2018-09-30T08:09:22.585Z,4464.00
2018-09-30T08:10:22.573Z,4488.00
2018-09-30T08:11:22.562Z,4484.00
2018-09-30T08:12:22.549Z,4500.00
2018-09-30T08:13:22.539Z,4500.00
2018-09-30T08:14:22.528Z,4540.00
2018-09-30T08:15:22.520Z,4532.00
2018-09-30T08:16:22.529Z,4548.00
2018-09-30T08:17:22.497Z,4600.00
2018-09-30T08:18:22.485Z,4620.00
2018-09-30T08:19:22.474Z,4656.00
2018-09-30T08:20:22.464Z,4672.00
2018-09-30T08:21:22.453Z,4704.00
2018-09-30T08:22:22.441Z,4712.00
2018-09-30T08:23:22.430Z,4724.00
2018-09-30T08:24:22.441Z,4736.00
2018-09-30T08:25:22.411Z,4752.00
2018-09-30T08:26:22.399Z,4764.00
2018-09-30T08:27:22.389Z,4780.00
2018-09-30T08:28:22.375Z,4796.00
2018-09-30T08:29:22.369Z,4816.00
2018-09-30T08:30:22.356Z,4820.00
2018-09-30T08:31:22.354Z,4688.00
2018-09-30T08:32:22.334Z,4776.00
2018-09-30T08:33:22.329Z,4848.00
2018-09-30T08:34:22.314Z,4856.00
2018-09-30T08:35:22.303Z,4868.00
2018-09-30T08:36:22.291Z,4884.00
2018-09-30T08:37:22.281Z,4900.00
2018-09-30T08:38:22.275Z,4912.00
2018-09-30T08:39:22.259Z,4928.00
2018-09-30T08:40:22.248Z,4940.00
2018-09-30T08:41:22.242Z,4952.00
2018-09-30T08:42:22.224Z,4964.00
2018-09-30T08:43:22.216Z,4976.00
2018-09-30T08:44:22.245Z,4996.00
2018-09-30T08:45:22.193Z,5004.00
2018-09-30T08:46:22.189Z,5024.00
2018-09-30T08:47:22.213Z,5032.00
2018-09-30T08:48:22.160Z,5052.00
2018-09-30T08:49:22.196Z,5068.00
2018-09-30T08:50:22.139Z,5088.00
2018-09-30T08:51:22.127Z,5100.00
2018-09-30T08:52:22.119Z,5116.00
2018-09-30T08:53:22.108Z,5132.00
2018-09-30T08:54:22.097Z,5148.00
2018-09-30T08:55:22.086Z,5164.00
2018-09-30T08:56:22.080Z,5180.00
2018-09-30T08:57:22.065Z,5196.00
2018-09-30T08:58:22.052Z,5208.00
2018-09-30T08:59:22.042Z,5228.00
2018-09-30T09:00:22.032Z,5244.00
2018-09-30T09:01:22.020Z,5256.00
2018-09-30T09:02:22.014Z,5276.00
2018-09-30T09:03:21.999Z,5300.00
2018-09-30T09:04:21.989Z,5300.00
2018-09-30T09:05:21.978Z,5316.00
2018-09-30T09:06:21.967Z,5316.00
2018-09-30T09:07:21.956Z,5324.00
2018-09-30T09:08:21.944Z,5332.00
2018-09-30T09:09:21.931Z,5348.00
2018-09-30T09:10:21.923Z,5360.00
2018-09-30T09:11:21.914Z,5372.00
2018-09-30T09:12:21.903Z,5392.00
2018-09-30T09:13:21.894Z,5404.00
2018-09-30T09:14:21.879Z,5420.00
2018-09-30T09:15:21.903Z,5436.00
2018-09-30T09:16:21.858Z,5452.00
2018-09-30T09:17:21.845Z,5456.00
2018-09-30T09:18:21.834Z,5472.00
2018-09-30T09:19:21.824Z,5484.00
2018-09-30T09:20:21.814Z,5500.00
2018-09-30T09:21:21.803Z,5512.00
2018-09-30T09:22:21.869Z,5528.00
2018-09-30T09:23:21.784Z,5540.00
2018-09-30T09:24:21.770Z,5556.00
2018-09-30T09:25:21.770Z,5564.00
2018-09-30T09:26:21.751Z,5584.00
2018-09-30T09:27:21.740Z,5588.00
2018-09-30T09:28:21.726Z,5612.00
2018-09-30T09:29:21.717Z,5628.00
2018-09-30T09:30:21.706Z,5636.00
2018-09-30T09:31:21.696Z,5648.00
2018-09-30T09:32:21.683Z,5656.00
2018-09-30T09:33:21.673Z,5672.00
2018-09-30T09:34:21.662Z,5684.00
2018-09-30T09:35:21.655Z,5692.00
2018-09-30T09:36:21.641Z,5708.00
2018-09-30T09:37:21.630Z,5720.00
2018-09-30T09:38:21.649Z,5732.00
2018-09-30T09:39:21.610Z,5744.00
2018-09-30T09:40:21.597Z,5756.00
2018-09-30T09:41:21.588Z,5768.00
2018-09-30T09:42:21.578Z,5780.00
2018-09-30T09:43:21.567Z,5792.00
2018-09-30T09:44:21.561Z,5804.00
2018-09-30T09:45:21.545Z,5812.00
2018-09-30T09:46:21.539Z,5824.00
2018-09-30T09:47:21.525Z,5832.00
2018-09-30T09:48:21.512Z,5844.00
2018-09-30T09:49:21.500Z,5852.00
2018-09-30T09:50:21.489Z,5864.00
2018-09-30T09:51:21.482Z,5876.00
2018-09-30T09:52:21.485Z,5884.00
2018-09-30T09:53:21.458Z,5904.00
2018-09-30T09:54:21.454Z,5908.00
2018-09-30T09:55:21.438Z,5928.00
2018-09-30T09:56:21.427Z,5936.00
2018-09-30T09:57:21.415Z,5948.00
2018-09-30T09:58:21.405Z,5940.00
2018-09-30T09:59:21.448Z,5956.00
2018-09-30T10:00:21.384Z,5956.00
2018-09-30T10:01:21.373Z,5972.00
2018-09-30T10:02:21.361Z,5984.00
2018-09-30T10:03:21.351Z,6000.00
2018-09-30T10:04:21.339Z,6012.00
2018-09-30T10:05:21.328Z,6020.00
2018-09-30T10:06:21.318Z,6028.00
2018-09-30T10:07:21.305Z,6036.00
2018-09-30T10:08:21.298Z,6044.00
2018-09-30T10:09:21.285Z,6056.00
2018-09-30T10:10:21.275Z,6068.00
2018-09-30T10:11:21.267Z,6068.00
2018-09-30T10:12:21.254Z,6080.00
2018-09-30T10:13:21.348Z,6092.00
2018-09-30T10:14:21.232Z,6096.00
2018-09-30T10:15:21.220Z,6100.00
2018-09-30T10:16:21.209Z,6112.00
2018-09-30T10:17:21.199Z,6120.00
2018-09-30T10:18:21.188Z,6132.00
2018-09-30T10:19:21.217Z,6140.00
2018-09-30T10:20:21.169Z,6148.00
2018-09-30T10:21:21.164Z,6148.00
2018-09-30T10:22:21.145Z,6156.00
2018-09-30T10:23:21.138Z,6168.00
2018-09-30T10:24:21.123Z,6176.00
2018-09-30T10:25:21.111Z,6188.00
2018-09-30T10:26:21.103Z,6188.00
2018-09-30T10:27:21.091Z,6192.00
2018-09-30T10:28:21.082Z,6204.00
2018-09-30T10:29:21.069Z,6216.00
2018-09-30T10:30:21.059Z,6220.00
2018-09-30T10:31:21.049Z,6228.00
2018-09-30T10:32:21.036Z,6236.00
2018-09-30T10:33:21.031Z,6244.00
2018-09-30T10:34:21.018Z,6252.00
2018-09-30T10:35:21.004Z,6260.00
2018-09-30T10:36:20.994Z,6264.00
2018-09-30T10:37:21.030Z,6272.00
2018-09-30T10:38:21.080Z,6284.00
2018-09-30T10:39:21.231Z,6300.00
2018-09-30T10:40:20.951Z,6300.00
2018-09-30T10:41:20.938Z,6304.00
2018-09-30T10:42:20.930Z,6308.00
2018-09-30T10:43:20.924Z,6316.00
2018-09-30T10:44:20.915Z,6316.00
2018-09-30T10:45:20.895Z,6328.00
2018-09-30T10:46:20.886Z,6332.00
2018-09-30T10:47:20.885Z,6340.00
2018-09-30T10:48:20.905Z,6352.00
2018-09-30T10:49:20.853Z,6360.00
2018-09-30T10:50:20.848Z,6372.00
2018-09-30T10:51:20.834Z,6376.00
2018-09-30T10:52:20.823Z,6384.00
2018-09-30T10:53:20.810Z,6388.00
2018-09-30T10:54:20.802Z,6396.00
2018-09-30T10:55:20.843Z,6404.00
2018-09-30T10:56:20.780Z,6408.00
2018-09-30T10:57:20.769Z,6408.00
2018-09-30T10:58:20.761Z,6408.00
2018-09-30T10:59:20.749Z,6412.00
2018-09-30T11:00:20.736Z,6416.00
2018-09-30T11:01:20.751Z,6420.00
2018-09-30T11:02:20.716Z,6420.00
2018-09-30T11:03:20.743Z,6428.00
2018-09-30T11:04:20.694Z,6436.00
2018-09-30T11:05:20.682Z,6440.00
2018-09-30T11:06:20.672Z,6444.00
2018-09-30T11:07:20.660Z,6448.00
2018-09-30T11:08:20.648Z,6452.00
2018-09-30T11:09:20.637Z,6448.00
2018-09-30T11:10:20.636Z,6444.00
2018-09-30T11:11:20.617Z,6444.00
2018-09-30T11:12:20.605Z,6444.00
2018-09-30T11:13:20.595Z,6440.00
2018-09-30T11:14:20.585Z,6440.00
2018-09-30T11:15:20.578Z,6432.00
2018-09-30T11:16:20.565Z,6432.00
2018-09-30T11:17:20.549Z,6432.00
2018-09-30T11:18:20.546Z,6432.00
2018-09-30T11:19:20.529Z,6432.00
2018-09-30T11:20:20.520Z,6436.00
2018-09-30T11:21:20.510Z,6432.00
2018-09-30T11:22:20.518Z,6424.00
2018-09-30T11:23:20.488Z,6424.00
2018-09-30T11:24:20.478Z,6424.00
2018-09-30T11:25:20.463Z,6424.00
2018-09-30T11:26:20.457Z,6420.00
2018-09-30T11:27:20.440Z,6416.00
2018-09-30T11:28:20.435Z,6412.00
2018-09-30T11:29:20.420Z,6408.00
2018-09-30T11:30:20.408Z,6404.00
2018-09-30T11:31:20.399Z,6404.00
2018-09-30T11:32:20.386Z,6404.00
2018-09-30T11:33:20.378Z,6400.00
2018-09-30T11:34:20.366Z,6392.00
2018-09-30T11:35:20.356Z,6392.00
2018-09-30T11:36:20.346Z,6388.00
2018-09-30T11:37:20.335Z,6392.00
2018-09-30T11:38:20.324Z,6384.00
2018-09-30T11:39:20.323Z,6372.00
2018-09-30T11:40:20.302Z,6360.00
2018-09-30T11:41:20.292Z,6360.00
2018-09-30T11:42:20.279Z,6376.00
2018-09-30T11:43:20.267Z,6380.00
2018-09-30T11:44:20.258Z,6380.00
2018-09-30T11:45:20.246Z,6376.00
2018-09-30T11:46:20.236Z,6360.00
2018-09-30T11:47:20.228Z,6356.00
2018-09-30T11:48:20.215Z,6356.00
2018-09-30T11:49:20.203Z,6352.00
2018-09-30T11:50:20.192Z,6352.00
2018-09-30T11:51:20.181Z,6352.00
2018-09-30T11:52:20.172Z,6356.00
2018-09-30T11:53:20.160Z,6352.00
2018-09-30T11:54:20.149Z,6348.00
2018-09-30T11:55:20.137Z,6344.00
2018-09-30T11:56:20.130Z,6336.00
2018-09-30T11:57:20.117Z,6340.00
2018-09-30T11:58:20.107Z,6336.00
2018-09-30T11:59:20.094Z,6324.00
2018-09-30T12:00:20.086Z,6324.00
2018-09-30T12:01:20.210Z,6324.00
2018-09-30T12:02:20.092Z,6324.00
2018-09-30T12:03:20.053Z,6320.00
2018-09-30T12:04:20.045Z,6316.00
2018-09-30T12:05:20.032Z,6312.00
2018-09-30T12:06:20.023Z,6308.00
2018-09-30T12:07:20.009Z,6300.00
2018-09-30T12:08:20.000Z,6296.00
2018-09-30T12:09:19.986Z,6300.00
2018-09-30T12:10:19.976Z,6296.00
2018-09-30T12:11:19.965Z,6292.00
2018-09-30T12:12:19.954Z,6284.00
2018-09-30T12:13:19.942Z,6284.00
2018-09-30T12:14:19.934Z,6292.00
2018-09-30T12:15:19.921Z,6284.00
2018-09-30T12:16:19.912Z,6280.00
2018-09-30T12:17:19.899Z,6268.00
2018-09-30T12:18:19.891Z,6264.00
2018-09-30T12:19:19.889Z,6260.00
2018-09-30T12:20:19.867Z,6260.00
2018-09-30T12:21:19.862Z,6252.00
2018-09-30T12:22:19.848Z,6252.00
2018-09-30T12:23:19.835Z,6244.00
2018-09-30T12:24:19.823Z,6236.00
2018-09-30T12:25:19.816Z,6228.00
2018-09-30T12:26:19.803Z,6224.00
2018-09-30T12:27:19.794Z,6220.00
2018-09-30T12:28:19.782Z,6212.00
2018-09-30T12:29:19.771Z,6208.00
2018-09-30T12:30:19.763Z,6200.00
2018-09-30T12:31:19.750Z,6184.00
2018-09-30T12:32:19.738Z,6184.00
2018-09-30T12:33:19.729Z,6172.00
2018-09-30T12:34:19.717Z,6164.00
2018-09-30T12:35:19.706Z,6152.00